Time;durP1;ratioP1;P1;durP2;ratioP2;P2;SDS_P1;SDS_P2;PMS_P1;PMS_P2;Temp;Humidity;BMP_temperature;BMP_pressure;BME280_temperature;BME280_humidity;BME280_pressure;Samples;Min_cycle;Max_cycle;Signal;HPM_P1;HPM_P2
2022/03/31 00:02:08;;;;;;;;;;;9.50;94.40;;;;;;4972827;28;19942;-94
2022/03/31 00:04:36;;;;;;;;;;;9.60;94.60;;;;;;4961531;28;19937;-93
2022/03/31 00:07:04;;;;;;;;;;;9.60;94.70;;;;;;4953894;28;20520;-94
2022/03/31 00:09:31;;;;;;;;;;;9.50;94.60;;;;;;4953848;29;19927;-96
2022/03/31 00:11:59;;;;;;;;;;;9.50;94.70;;;;;;4976205;28;19926;-94
2022/03/31 00:14:26;;;;;;;;;;;9.50;94.60;;;;;;4948746;29;19978;-94
2022/03/31 00:16:53;;;;;;;;;;;9.50;94.70;;;;;;4959364;28;19926;-95
2022/03/31 00:19:22;;;;;;;;;;;9.50;94.70;;;;;;4971222;28;19965;-95
2022/03/31 00:21:49;;;;;;;;;;;9.50;94.70;;;;;;4964010;28;19930;-96
2022/03/31 00:24:28;;;;;;;;;;;9.50;94.80;;;;;;4979108;28;19926;-94
2022/03/31 00:27:21;;;;;;;;;;;9.50;94.80;;;;;;4984796;28;19944;-96
2022/03/31 00:29:48;;;;;;;;;;;9.50;94.80;;;;;;4972023;28;19950;-94
2022/03/31 00:32:15;;;;;;;;;;;9.40;94.90;;;;;;4965234;28;19969;-93
2022/03/31 00:34:44;;;;;;;;;;;9.40;94.90;;;;;;4971260;28;19926;-92
2022/03/31 00:37:12;;;;;;;;;;;9.50;95.00;;;;;;4979085;28;19926;-94
2022/03/31 00:39:39;;;;;;;;;;;9.40;95.00;;;;;;4961235;28;19927;-93
2022/03/31 00:42:07;;;;;;;;;;;9.40;94.90;;;;;;4969883;28;19926;-94
2022/03/31 00:44:35;;;;;;;;;;;9.40;95.00;;;;;;4966284;28;19982;-95
2022/03/31 00:47:02;;;;;;;;;;;9.40;94.90;;;;;;4967791;28;19926;-95
2022/03/31 00:49:32;;;;;;;;;;;9.40;95.00;;;;;;4948449;29;19934;-94
2022/03/31 00:52:01;;;;;;;;;;;9.40;94.90;;;;;;4965818;28;19927;-94
2022/03/31 00:54:28;;;;;;;;;;;9.40;94.90;;;;;;4968804;28;19990;-94
2022/03/31 00:56:57;;;;;;;;;;;9.40;95.10;;;;;;4971333;28;19930;-94
2022/03/31 00:59:24;;;;;;;;;;;9.40;95.00;;;;;;4963644;28;19926;-93
2022/03/31 01:01:52;;;;;;;;;;;9.40;95.00;;;;;;4970841;28;19977;-95
2022/03/31 01:04:20;;;;;;;;;;;9.30;95.00;;;;;;4967859;28;19962;-93
2022/03/31 01:06:49;;;;;;;;;;;9.30;94.90;;;;;;4972553;28;19926;-94
2022/03/31 01:12:00;;;;;;;;;;;9.30;95.00;;;;;;4959323;29;19926;-95
2022/03/31 01:14:27;;;;;;;;;;;9.30;95.10;;;;;;4964799;28;19935;-93
2022/03/31 01:16:54;;;;;;;;;;;9.30;95.10;;;;;;4953076;28;19927;-94
2022/03/31 01:19:21;;;;;;;;;;;9.30;94.90;;;;;;4952549;28;19926;-94
2022/03/31 01:21:48;;;;;;;;;;;9.30;95.00;;;;;;4968454;28;19930;-94
2022/03/31 01:24:18;;;;;;;;;;;9.30;95.00;;;;;;4966345;28;19925;-93
2022/03/31 01:26:45;;;;;;;;;;;9.30;95.00;;;;;;4960452;29;19931;-94
2022/03/31 01:29:13;;;;;;;;;;;9.30;95.10;;;;;;4976241;28;19937;-94
2022/03/31 01:31:40;;;;;;;;;;;9.20;95.00;;;;;;4973220;28;19927;-94
2022/03/31 01:34:08;;;;;;;;;;;9.20;95.10;;;;;;4973368;28;19927;-93
2022/03/31 01:36:36;;;;;;;;;;;9.30;95.20;;;;;;4958879;29;19930;-94
2022/03/31 01:39:03;;;;;;;;;;;9.30;95.20;;;;;;4977433;28;19938;-93
2022/03/31 01:41:32;;;;;;;;;;;9.20;95.00;;;;;;4956768;29;19926;-93
2022/03/31 01:43:59;;;;;;;;;;;9.20;95.20;;;;;;4982359;28;19926;-93
2022/03/31 01:46:29;;;;;;;;;;;9.20;95.00;;;;;;4972410;28;19934;-93
2022/03/31 01:48:59;;;;;;;;;;;9.20;95.00;;;;;;4967733;28;19926;-94
2022/03/31 01:51:26;;;;;;;;;;;9.20;95.10;;;;;;4967086;28;20395;-94
2022/03/31 01:53:56;;;;;;;;;;;9.20;95.10;;;;;;4974222;28;20438;-93
2022/03/31 01:56:23;;;;;;;;;;;9.20;95.00;;;;;;4960068;28;19933;-94
2022/03/31 01:58:51;;;;;;;;;;;9.20;95.00;;;;;;4986212;28;19926;-96
2022/03/31 02:01:18;;;;;;;;;;;9.10;95.10;;;;;;4967449;28;20016;-95
2022/03/31 02:03:54;;;;;;;;;;;9.20;95.00;;;;;;4965945;28;19982;-95
2022/03/31 02:06:21;;;;;;;;;;;9.10;95.00;;;;;;4961585;28;19926;-95
2022/03/31 02:08:48;;;;;;;;;;;9.10;94.90;;;;;;4980398;28;19917;-95
2022/03/31 02:11:15;;;;;;;;;;;9.10;95.00;;;;;;4962829;28;20029;-96
2022/03/31 02:13:43;;;;;;;;;;;9.10;95.00;;;;;;4986223;28;19926;-96
2022/03/31 02:16:11;;;;;;;;;;;9.10;95.00;;;;;;4980913;28;19927;-94
2022/03/31 02:18:38;;;;;;;;;;;9.10;94.90;;;;;;4970191;28;19953;-94
2022/03/31 02:21:06;;;;;;;;;;;9.10;94.90;;;;;;4956945;28;19930;-96
2022/03/31 02:23:33;;;;;;;;;;;9.00;94.80;;;;;;4979409;28;19926;-94
2022/03/31 02:26:01;;;;;;;;;;;9.10;94.90;;;;;;4974292;28;19936;-95
2022/03/31 02:28:28;;;;;;;;;;;9.10;95.00;;;;;;4976274;28;19950;-95
2022/03/31 02:30:55;;;;;;;;;;;9.10;95.10;;;;;;4981344;28;19934;-95
2022/03/31 02:33:24;;;;;;;;;;;9.00;94.90;;;;;;4984328;28;19987;-96
2022/03/31 02:35:51;;;;;;;;;;;9.10;94.90;;;;;;4966796;28;19933;-94
2022/03/31 02:38:18;;;;;;;;;;;9.10;94.90;;;;;;4971183;28;20020;-96
2022/03/31 02:40:45;;;;;;;;;;;9.00;95.00;;;;;;4982424;28;19927;-95
2022/03/31 02:43:12;;;;;;;;;;;9.00;94.90;;;;;;4968275;28;19927;-95
2022/03/31 02:45:39;;;;;;;;;;;9.00;94.90;;;;;;4979506;28;19926;-94
2022/03/31 02:48:06;;;;;;;;;;;9.00;94.90;;;;;;4971008;28;19931;-94
2022/03/31 02:50:35;;;;;;;;;;;9.00;94.90;;;;;;4960581;29;19926;-96
2022/03/31 02:55:46;;;;;;;;;;;9.00;94.90;;;;;;4975635;28;20295;-95
2022/03/31 02:58:13;;;;;;;;;;;9.00;94.80;;;;;;4977528;28;19926;-95
2022/03/31 03:00:40;;;;;;;;;;;8.90;94.80;;;;;;4971572;28;19937;-95
2022/03/31 03:03:08;;;;;;;;;;;8.90;94.70;;;;;;4964381;28;19930;-93
2022/03/31 03:05:37;;;;;;;;;;;8.90;94.70;;;;;;4969587;28;19950;-95
2022/03/31 03:08:04;;;;;;;;;;;9.00;94.80;;;;;;4974008;28;19926;-94
2022/03/31 03:10:32;;;;;;;;;;;8.90;94.70;;;;;;4973281;28;19941;-95
2022/03/31 03:12:59;;;;;;;;;;;8.90;94.70;;;;;;4966240;28;20390;-96
2022/03/31 03:15:26;;;;;;;;;;;8.90;94.80;;;;;;4967155;28;19930;-95
2022/03/31 03:17:53;;;;;;;;;;;8.90;94.80;;;;;;4967951;28;19942;-94
2022/03/31 03:20:20;;;;;;;;;;;8.90;94.70;;;;;;4970552;28;19933;-94
2022/03/31 03:22:51;;;;;;;;;;;8.90;94.70;;;;;;4958245;28;19927;-95
2022/03/31 03:25:19;;;;;;;;;;;8.90;94.70;;;;;;4967855;28;19937;-94
2022/03/31 03:27:46;;;;;;;;;;;8.90;94.70;;;;;;4965610;28;19934;-95
2022/03/31 03:30:14;;;;;;;;;;;8.90;94.70;;;;;;4975152;28;19926;-94
2022/03/31 03:32:41;;;;;;;;;;;8.90;94.80;;;;;;4968702;28;19934;-96
2022/03/31 03:35:09;;;;;;;;;;;8.80;94.80;;;;;;4968009;28;19926;-94
2022/03/31 03:37:36;;;;;;;;;;;8.80;94.70;;;;;;4972052;28;19934;-94
2022/03/31 03:40:07;;;;;;;;;;;8.90;94.80;;;;;;4975509;28;19926;-94
2022/03/31 03:42:44;;;;;;;;;;;8.80;94.70;;;;;;4975715;28;19950;-94
2022/03/31 03:45:17;;;;;;;;;;;8.80;94.60;;;;;;4948425;29;19934;-94
2022/03/31 03:47:44;;;;;;;;;;;8.80;94.70;;;;;;4966315;28;19936;-95
2022/03/31 03:50:12;;;;;;;;;;;8.80;94.60;;;;;;4972915;28;20017;-96
2022/03/31 03:52:39;;;;;;;;;;;8.80;94.70;;;;;;4968584;28;19926;-94
2022/03/31 03:55:08;;;;;;;;;;;8.80;94.60;;;;;;4969098;28;20334;-95
2022/03/31 03:57:36;;;;;;;;;;;8.80;94.60;;;;;;4972911;28;19927;-94
2022/03/31 04:00:04;;;;;;;;;;;8.80;94.70;;;;;;4897462;28;1957277;-95
2022/03/31 04:02:31;;;;;;;;;;;8.80;94.70;;;;;;4632268;23;19989;-78
2022/03/31 04:04:58;;;;;;;;;;;8.80;94.60;;;;;;4950301;28;20316;-77
2022/03/31 04:07:25;;;;;;;;;;;8.70;94.60;;;;;;4962160;28;19926;-77
2022/03/31 04:09:52;;;;;;;;;;;8.70;94.90;;;;;;4978650;28;20017;-77
2022/03/31 04:12:20;;;;;;;;;;;8.70;94.90;;;;;;4974096;28;20003;-78
2022/03/31 04:14:47;;;;;;;;;;;8.70;94.80;;;;;;4970896;28;19926;-78
2022/03/31 04:17:14;;;;;;;;;;;8.70;94.70;;;;;;4951073;28;20497;-76
2022/03/31 04:19:42;;;;;;;;;;;8.70;94.70;;;;;;4948971;28;22377;-77
2022/03/31 04:22:09;;;;;;;;;;;8.70;94.70;;;;;;4970753;28;20422;-77
2022/03/31 04:24:36;;;;;;;;;;;8.70;94.70;;;;;;4959567;28;20323;-76
2022/03/31 04:27:03;;;;;;;;;;;8.70;94.60;;;;;;4949063;28;20460;-77
2022/03/31 04:29:31;;;;;;;;;;;8.70;94.60;;;;;;4970859;28;19926;-77
2022/03/31 04:31:58;;;;;;;;;;;8.70;94.60;;;;;;4971296;28;19934;-77
2022/03/31 04:34:25;;;;;;;;;;;8.70;94.70;;;;;;4971133;28;19926;-78
2022/03/31 04:36:52;;;;;;;;;;;8.70;94.80;;;;;;4968487;28;19926;-77
2022/03/31 04:39:19;;;;;;;;;;;8.70;94.70;;;;;;4968359;28;19930;-76
2022/03/31 04:41:46;;;;;;;;;;;8.60;94.70;;;;;;4972519;28;20389;-79
2022/03/31 04:44:13;;;;;;;;;;;8.60;94.80;;;;;;4953510;28;19930;-76
2022/03/31 04:46:43;;;;;;;;;;;8.60;94.70;;;;;;4971024;28;19934;-76
2022/03/31 04:49:10;;;;;;;;;;;8.60;94.70;;;;;;4959412;28;19940;-76
2022/03/31 04:51:37;;;;;;;;;;;8.60;94.80;;;;;;4975477;28;19988;-77
2022/03/31 04:54:04;;;;;;;;;;;8.60;94.80;;;;;;4967158;28;19926;-79
2022/03/31 04:56:31;;;;;;;;;;;8.60;94.70;;;;;;4968544;28;20021;-78
2022/03/31 04:58:58;;;;;;;;;;;8.60;94.60;;;;;;4968614;28;19926;-77
2022/03/31 05:01:25;;;;;;;;;;;8.60;94.60;;;;;;4972183;28;20463;-77
2022/03/31 05:03:55;;;;;;;;;;;8.60;94.60;;;;;;4969541;28;20425;-77
2022/03/31 05:06:22;;;;;;;;;;;8.60;94.60;;;;;;4969486;28;19926;-77
2022/03/31 05:08:49;;;;;;;;;;;8.60;94.60;;;;;;4969908;28;19988;-77
2022/03/31 05:11:17;;;;;;;;;;;8.60;94.60;;;;;;4980295;28;19934;-77
2022/03/31 05:13:43;;;;;;;;;;;8.50;94.50;;;;;;4969791;28;19926;-77
2022/03/31 05:16:10;;;;;;;;;;;8.50;94.50;;;;;;4967950;28;19954;-78
2022/03/31 05:18:37;;;;;;;;;;;8.50;94.70;;;;;;4973168;28;20013;-77
2022/03/31 05:21:05;;;;;;;;;;;8.50;95.10;;;;;;4969020;28;19926;-77
2022/03/31 05:23:32;;;;;;;;;;;8.50;94.90;;;;;;4968988;28;19934;-78
2022/03/31 05:25:59;;;;;;;;;;;8.50;94.80;;;;;;4967615;28;19933;-77
2022/03/31 05:28:26;;;;;;;;;;;8.50;94.90;;;;;;4951144;28;20021;-79
2022/03/31 05:30:54;;;;;;;;;;;8.50;94.80;;;;;;4976097;28;20286;-77
2022/03/31 05:33:21;;;;;;;;;;;8.50;94.70;;;;;;4971403;28;19961;-77
2022/03/31 05:35:48;;;;;;;;;;;8.50;94.70;;;;;;4969280;28;19927;-77
2022/03/31 05:38:17;;;;;;;;;;;8.50;94.70;;;;;;4972809;28;19975;-77
2022/03/31 05:40:46;;;;;;;;;;;8.50;94.60;;;;;;4976092;28;19946;-76
2022/03/31 05:43:14;;;;;;;;;;;8.50;94.60;;;;;;4938403;28;19977;-77
2022/03/31 05:45:41;;;;;;;;;;;8.50;94.70;;;;;;4965382;28;19973;-76
2022/03/31 05:48:08;;;;;;;;;;;8.50;94.60;;;;;;4972097;28;19988;-77
2022/03/31 05:50:35;;;;;;;;;;;8.50;94.70;;;;;;4950157;28;20356;-77
2022/03/31 05:53:02;;;;;;;;;;;8.50;94.70;;;;;;4974236;28;20021;-77
2022/03/31 05:55:32;;;;;;;;;;;8.50;94.70;;;;;;4974497;28;19932;-77
2022/03/31 05:58:00;;;;;;;;;;;8.50;94.60;;;;;;4971074;28;19926;-77
2022/03/31 06:00:27;;;;;;;;;;;8.50;94.70;;;;;;4966537;28;19930;-76
2022/03/31 06:02:55;;;;;;;;;;;8.50;94.60;;;;;;4966167;28;19934;-77
2022/03/31 06:05:25;;;;;;;;;;;8.40;94.70;;;;;;4954729;28;19978;-77
2022/03/31 06:07:52;;;;;;;;;;;8.40;94.80;;;;;;4968991;28;19980;-76
2022/03/31 06:10:20;;;;;;;;;;;8.40;94.70;;;;;;4969857;28;19973;-76
2022/03/31 06:12:48;;;;;;;;;;;8.50;94.80;;;;;;4948405;28;20300;-76
2022/03/31 06:15:17;;;;;;;;;;;8.40;94.70;;;;;;4971111;28;19954;-76
2022/03/31 06:17:44;;;;;;;;;;;8.40;94.70;;;;;;4968655;28;19926;-76
2022/03/31 06:20:12;;;;;;;;;;;8.40;94.70;;;;;;4955135;28;19969;-76
2022/03/31 06:22:39;;;;;;;;;;;8.40;94.90;;;;;;4972284;28;20893;-76
2022/03/31 06:25:10;;;;;;;;;;;8.40;94.90;;;;;;4969824;28;20041;-76
2022/03/31 06:27:37;;;;;;;;;;;8.40;94.80;;;;;;4970124;28;19926;-76
2022/03/31 06:30:07;;;;;;;;;;;8.40;95.00;;;;;;4975608;28;19930;-77
2022/03/31 06:32:34;;;;;;;;;;;8.40;95.20;;;;;;4973174;28;20014;-76
2022/03/31 06:35:01;;;;;;;;;;;8.40;94.80;;;;;;4973070;28;19926;-76
2022/03/31 06:37:28;;;;;;;;;;;8.40;94.90;;;;;;4952887;28;19926;-76
2022/03/31 06:39:56;;;;;;;;;;;8.40;94.70;;;;;;4978031;28;19981;-76
2022/03/31 06:42:23;;;;;;;;;;;8.40;94.90;;;;;;4971844;28;19934;-76
2022/03/31 06:44:50;;;;;;;;;;;8.40;95.10;;;;;;4956720;28;19926;-76
2022/03/31 06:47:18;;;;;;;;;;;8.40;94.80;;;;;;5051574;23;19925;-78
2022/03/31 06:52:13;;;;;;;;;;;8.40;95.00;;;;;;4932822;29;19927;-76
2022/03/31 06:54:40;;;;;;;;;;;8.40;94.80;;;;;;4933109;29;19927;-77
2022/03/31 06:57:08;;;;;;;;;;;8.40;94.90;;;;;;4938267;29;19930;-77
2022/03/31 06:59:35;;;;;;;;;;;8.40;94.80;;;;;;4935449;29;20401;-77
2022/03/31 07:02:02;;;;;;;;;;;8.40;94.80;;;;;;4933388;29;19930;-79
2022/03/31 07:04:30;;;;;;;;;;;8.30;94.90;;;;;;4937391;29;20324;-77
2022/03/31 07:06:57;;;;;;;;;;;8.40;94.90;;;;;;4934152;29;20357;-75
2022/03/31 07:09:24;;;;;;;;;;;8.40;94.90;;;;;;4931586;29;20376;-77
2022/03/31 07:11:51;;;;;;;;;;;8.40;95.00;;;;;;4933858;29;19927;-77
2022/03/31 07:14:18;;;;;;;;;;;8.40;95.10;;;;;;4933477;29;19931;-77
2022/03/31 07:16:46;;;;;;;;;;;8.30;95.00;;;;;;4937419;29;19937;-77
2022/03/31 07:19:13;;;;;;;;;;;8.40;95.10;;;;;;4935216;29;19926;-78
2022/03/31 07:21:41;;;;;;;;;;;8.40;95.30;;;;;;4931761;29;19970;-76
2022/03/31 07:24:08;;;;;;;;;;;8.40;95.10;;;;;;4933592;29;19933;-77
2022/03/31 07:26:35;;;;;;;;;;;8.30;95.10;;;;;;4916508;29;20009;-76
2022/03/31 07:29:03;;;;;;;;;;;8.30;95.00;;;;;;4919106;29;19930;-77
2022/03/31 07:31:30;;;;;;;;;;;8.30;95.30;;;;;;4939609;29;19970;-77
2022/03/31 07:33:57;;;;;;;;;;;8.30;95.20;;;;;;4934937;29;19931;-77
2022/03/31 07:36:24;;;;;;;;;;;8.30;95.10;;;;;;4932449;29;20386;-77
2022/03/31 07:38:53;;;;;;;;;;;8.30;95.00;;;;;;4934241;29;19931;-77
2022/03/31 07:41:20;;;;;;;;;;;8.30;95.20;;;;;;4933614;29;19962;-76
2022/03/31 07:43:47;;;;;;;;;;;8.30;95.10;;;;;;4956528;28;19927;-76
2022/03/31 07:46:15;;;;;;;;;;;8.30;95.00;;;;;;4957498;29;19927;-78
2022/03/31 07:48:42;;;;;;;;;;;8.30;95.10;;;;;;4938387;29;20137;-77
2022/03/31 07:51:09;;;;;;;;;;;8.30;95.30;;;;;;4931536;29;20025;-77
2022/03/31 07:53:36;;;;;;;;;;;8.30;95.30;;;;;;4916427;29;19931;-77
2022/03/31 07:56:05;;;;;;;;;;;8.30;95.30;;;;;;4933603;29;21218;-77
2022/03/31 07:58:33;;;;;;;;;;;8.30;95.20;;;;;;4930587;29;19935;-76
2022/03/31 08:01:00;;;;;;;;;;;8.30;95.50;;;;;;4929380;29;19926;-76
2022/03/31 08:03:27;;;;;;;;;;;8.30;95.30;;;;;;4936873;29;19966;-76
2022/03/31 08:05:54;;;;;;;;;;;8.30;95.30;;;;;;4932607;28;20480;-76
2022/03/31 08:08:21;;;;;;;;;;;8.30;95.30;;;;;;4931648;29;20021;-77
2022/03/31 08:10:49;;;;;;;;;;;8.30;95.40;;;;;;4933210;28;19927;-76
2022/03/31 08:13:24;;;;;;;;;;;8.30;95.40;;;;;;4936508;29;19977;-77
2022/03/31 08:15:53;;;;;;;;;;;8.30;95.60;;;;;;4910284;29;19942;-77
2022/03/31 08:18:27;;;;;;;;;;;8.40;95.50;;;;;;4918134;29;19930;-76
2022/03/31 08:20:55;;;;;;;;;;;8.30;95.50;;;;;;4939620;29;20390;-77
2022/03/31 08:23:22;;;;;;;;;;;8.40;95.60;;;;;;4932179;29;19979;-77
2022/03/31 08:25:49;;;;;;;;;;;8.30;95.60;;;;;;4931340;28;19931;-76
2022/03/31 08:28:16;;;;;;;;;;;8.40;95.80;;;;;;4929455;29;20432;-77
2022/03/31 08:30:44;;;;;;;;;;;8.40;95.80;;;;;;4928197;29;20014;-76
2022/03/31 08:33:12;;;;;;;;;;;8.40;95.70;;;;;;4933200;29;19934;-77
2022/03/31 08:35:39;;;;;;;;;;;8.40;96.00;;;;;;4937398;29;19934;-76
2022/03/31 08:38:06;;;;;;;;;;;8.40;96.10;;;;;;4928389;29;19930;-77
2022/03/31 08:40:33;;;;;;;;;;;8.40;96.40;;;;;;4931526;29;19990;-77
2022/03/31 08:43:01;;;;;;;;;;;8.40;96.20;;;;;;4932341;29;19931;-77
2022/03/31 08:45:29;;;;;;;;;;;8.40;96.20;;;;;;4934162;29;19982;-76
2022/03/31 08:48:00;;;;;;;;;;;8.40;96.30;;;;;;4932051;29;19926;-77
2022/03/31 08:50:28;;;;;;;;;;;8.40;96.30;;;;;;4927633;29;20471;-76
2022/03/31 08:52:55;;;;;;;;;;;8.40;96.50;;;;;;4932362;29;19927;-76
2022/03/31 08:55:22;;;;;;;;;;;8.40;96.50;;;;;;4930467;29;20378;-77
2022/03/31 08:57:50;;;;;;;;;;;8.40;96.40;;;;;;4931577;29;19939;-77
2022/03/31 09:00:20;;;;;;;;;;;8.40;96.40;;;;;;4933100;29;19935;-76
2022/03/31 09:02:55;;;;;;;;;;;8.40;96.50;;;;;;4932569;29;20405;-76
2022/03/31 09:05:24;;;;;;;;;;;8.40;96.40;;;;;;4930698;29;19927;-76
2022/03/31 09:07:52;;;;;;;;;;;8.40;96.40;;;;;;4927079;29;19931;-76
2022/03/31 09:10:26;;;;;;;;;;;8.40;96.40;;;;;;4932551;29;19930;-76
2022/03/31 09:12:54;;;;;;;;;;;8.40;96.70;;;;;;4909790;29;20357;-76
2022/03/31 09:15:21;;;;;;;;;;;8.40;96.50;;;;;;4934325;28;19950;-76
2022/03/31 09:17:53;;;;;;;;;;;8.40;96.50;;;;;;4931942;29;19934;-77
2022/03/31 09:20:21;;;;;;;;;;;8.40;97.00;;;;;;4913274;29;20305;-76
2022/03/31 09:22:50;;;;;;;;;;;8.50;96.90;;;;;;4917537;29;19985;-76
2022/03/31 09:25:26;;;;;;;;;;;8.40;97.10;;;;;;4933597;29;19982;-76
2022/03/31 09:27:55;;;;;;;;;;;8.50;97.00;;;;;;4935274;29;20021;-76
2022/03/31 09:30:24;;;;;;;;;;;8.50;97.10;;;;;;4913652;29;19931;-76
2022/03/31 09:32:51;;;;;;;;;;;8.50;97.00;;;;;;4927245;29;20022;-77
2022/03/31 09:35:21;;;;;;;;;;;8.50;97.00;;;;;;4917419;29;20313;-76
2022/03/31 09:37:49;;;;;;;;;;;8.50;96.70;;;;;;4932038;29;20452;-77
2022/03/31 09:40:19;;;;;;;;;;;8.50;96.70;;;;;;4933346;29;20025;-78
2022/03/31 09:42:56;;;;;;;;;;;8.50;96.60;;;;;;4936978;28;20610;-76
2022/03/31 09:45:24;;;;;;;;;;;8.50;96.50;;;;;;4931636;29;20324;-77
2022/03/31 09:47:52;;;;;;;;;;;8.50;96.60;;;;;;4925158;29;20290;-76
2022/03/31 09:50:20;;;;;;;;;;;8.50;96.60;;;;;;4931376;29;19930;-77
2022/03/31 09:52:48;;;;;;;;;;;8.50;96.70;;;;;;4930904;29;19982;-76
2022/03/31 09:55:19;;;;;;;;;;;8.50;96.70;;;;;;4930007;28;20428;-76
2022/03/31 09:57:49;;;;;;;;;;;8.50;96.60;;;;;;4929715;29;19927;-76
2022/03/31 10:00:17;;;;;;;;;;;8.50;96.70;;;;;;4933588;29;19981;-76
2022/03/31 10:02:45;;;;;;;;;;;8.50;96.70;;;;;;4938383;23;20317;-76
2022/03/31 10:05:15;;;;;;;;;;;8.50;96.60;;;;;;4940934;28;19927;-78
2022/03/31 10:07:45;;;;;;;;;;;8.50;96.70;;;;;;4914854;29;19928;-78
2022/03/31 10:10:13;;;;;;;;;;;8.50;96.50;;;;;;4913396;29;19931;-78
2022/03/31 10:12:44;;;;;;;;;;;8.60;96.70;;;;;;4913245;29;19977;-78
2022/03/31 10:15:16;;;;;;;;;;;8.50;96.50;;;;;;4913595;29;19934;-78
2022/03/31 10:17:44;;;;;;;;;;;8.60;96.80;;;;;;4916127;29;20341;-78
2022/03/31 10:20:12;;;;;;;;;;;8.60;96.60;;;;;;4919770;29;20014;-78
2022/03/31 10:25:35;;;;;;;;;;;8.60;96.80;;;;;;4920832;29;19931;-78
2022/03/31 10:28:11;;;;;;;;;;;8.60;96.80;;;;;;4913857;29;19932;-78
2022/03/31 10:30:43;;;;;;;;;;;8.60;96.60;;;;;;4922620;29;20306;-78
2022/03/31 10:33:11;;;;;;;;;;;8.60;97.00;;;;;;4914227;29;19927;-78
2022/03/31 10:35:40;;;;;;;;;;;8.60;97.10;;;;;;4911568;29;19935;-79
2022/03/31 10:38:14;;;;;;;;;;;8.60;97.00;;;;;;4911911;29;19985;-79
2022/03/31 10:40:42;;;;;;;;;;;8.60;96.80;;;;;;4908215;29;20354;-77
2022/03/31 10:43:20;;;;;;;;;;;8.70;96.90;;;;;;4911081;29;20290;-77
2022/03/31 10:45:47;;;;;;;;;;;8.70;97.30;;;;;;4913155;29;19991;-78
2022/03/31 10:48:16;;;;;;;;;;;8.70;97.00;;;;;;4915796;29;19927;-78
2022/03/31 10:50:43;;;;;;;;;;;8.70;97.10;;;;;;4910808;29;19927;-78
2022/03/31 10:53:10;;;;;;;;;;;8.70;97.10;;;;;;4912889;29;19926;-78
2022/03/31 10:55:38;;;;;;;;;;;8.70;97.10;;;;;;4909769;29;19927;-76
2022/03/31 10:58:06;;;;;;;;;;;8.70;96.70;;;;;;4912742;29;19935;-78
2022/03/31 11:00:34;;;;;;;;;;;8.70;97.30;;;;;;4910341;29;19938;-78
2022/03/31 11:03:01;;;;;;;;;;;8.80;97.50;;;;;;4911710;29;19928;-78
2022/03/31 11:05:32;;;;;;;;;;;8.80;96.90;;;;;;4913039;29;19926;-78
2022/03/31 11:08:03;;;;;;;;;;;8.80;97.10;;;;;;4910689;29;20409;-78
2022/03/31 11:10:41;;;;;;;;;;;8.80;97.50;;;;;;4908927;29;19927;-78
2022/03/31 11:13:09;;;;;;;;;;;8.80;97.50;;;;;;4906310;29;19931;-78
2022/03/31 11:15:38;;;;;;;;;;;8.80;97.60;;;;;;4910273;29;19931;-79
2022/03/31 11:18:07;;;;;;;;;;;8.90;97.20;;;;;;4909353;29;19934;-78
2022/03/31 11:20:34;;;;;;;;;;;8.90;97.30;;;;;;4906494;29;19927;-79
2022/03/31 11:23:03;;;;;;;;;;;8.90;96.80;;;;;;4908932;29;19931;-79
2022/03/31 11:25:30;;;;;;;;;;;8.90;97.30;;;;;;4912923;29;19927;-76
2022/03/31 11:27:58;;;;;;;;;;;8.90;97.10;;;;;;4910712;29;19933;-79
2022/03/31 11:30:26;;;;;;;;;;;8.90;97.20;;;;;;4905547;29;19998;-78
2022/03/31 11:32:56;;;;;;;;;;;9.00;97.30;;;;;;4908140;29;19942;-75
2022/03/31 11:35:24;;;;;;;;;;;9.00;97.40;;;;;;4907730;29;19939;-78
2022/03/31 11:37:53;;;;;;;;;;;9.00;97.50;;;;;;4909340;29;19935;-78
2022/03/31 11:40:22;;;;;;;;;;;9.00;97.60;;;;;;4910952;29;19934;-78
2022/03/31 11:42:50;;;;;;;;;;;9.00;97.50;;;;;;4911267;29;19927;-78
2022/03/31 11:45:28;;;;;;;;;;;9.10;97.60;;;;;;4909823;29;20004;-78
2022/03/31 11:47:58;;;;;;;;;;;9.10;97.70;;;;;;4917222;29;19927;-78
2022/03/31 11:50:26;;;;;;;;;;;9.10;97.70;;;;;;4915674;29;19931;-78
2022/03/31 11:52:54;;;;;;;;;;;9.10;97.50;;;;;;4915569;29;20033;-78
2022/03/31 11:55:22;;;;;;;;;;;9.10;97.50;;;;;;4914728;29;19927;-79
2022/03/31 11:57:53;;;;;;;;;;;9.10;97.30;;;;;;4919567;29;19935;-76
2022/03/31 12:00:22;;;;;;;;;;;9.10;97.40;;;;;;4923371;29;20038;-75
2022/03/31 12:03:01;;;;;;;;;;;9.10;97.40;;;;;;4907924;29;19927;-78
2022/03/31 12:05:29;;;;;;;;;;;9.20;97.40;;;;;;4910317;29;20309;-78
2022/03/31 12:07:57;;;;;;;;;;;9.20;97.30;;;;;;4918135;29;19931;-78
2022/03/31 12:10:25;;;;;;;;;;;9.20;97.20;;;;;;4912591;29;19931;-80
2022/03/31 12:12:53;;;;;;;;;;;9.20;97.10;;;;;;4909909;29;19931;-79
2022/03/31 12:15:21;;;;;;;;;;;9.20;97.20;;;;;;4909360;29;19934;-79
2022/03/31 12:18:02;;;;;;;;;;;9.30;97.30;;;;;;4925480;29;19927;-78
2022/03/31 12:20:30;;;;;;;;;;;9.30;97.30;;;;;;4906597;29;20023;-79
2022/03/31 12:22:57;;;;;;;;;;;9.30;97.50;;;;;;4914796;29;19927;-79
2022/03/31 12:25:32;;;;;;;;;;;9.30;97.40;;;;;;4927012;29;19931;-76
2022/03/31 12:28:00;;;;;;;;;;;9.30;97.40;;;;;;4911513;29;19974;-79
2022/03/31 12:30:38;;;;;;;;;;;9.30;97.50;;;;;;4914856;29;19931;-79
2022/03/31 12:33:16;;;;;;;;;;;9.40;97.70;;;;;;4906113;29;19933;-79
2022/03/31 12:35:43;;;;;;;;;;;9.40;97.70;;;;;;4924945;28;19935;-79
2022/03/31 12:38:10;;;;;;;;;;;9.40;97.60;;;;;;4909588;29;20009;-79
2022/03/31 12:40:36;;;;;;;;;;;9.40;97.80;;;;;;4906518;29;19935;-79
2022/03/31 12:43:03;;;;;;;;;;;9.40;97.90;;;;;;4906862;29;20435;-79
2022/03/31 12:45:30;;;;;;;;;;;9.50;97.90;;;;;;4911375;29;19927;-79
2022/03/31 12:47:57;;;;;;;;;;;9.50;98.20;;;;;;4907534;29;19963;-79
2022/03/31 12:50:27;;;;;;;;;;;9.50;98.40;;;;;;4910857;29;20330;-79
2022/03/31 12:52:54;;;;;;;;;;;9.50;98.60;;;;;;4925370;29;20389;-79
2022/03/31 12:55:26;;;;;;;;;;;9.50;98.70;;;;;;4913820;29;19927;-79
2022/03/31 12:57:57;;;;;;;;;;;9.60;98.80;;;;;;4916039;29;20025;-79
2022/03/31 13:00:25;;;;;;;;;;;9.60;98.90;;;;;;4932353;29;19966;-79
2022/03/31 13:02:52;;;;;;;;;;;9.60;99.00;;;;;;4904604;29;19928;-79
2022/03/31 13:05:20;;;;;;;;;;;9.60;99.10;;;;;;4912707;29;20362;-79
2022/03/31 13:07:49;;;;;;;;;;;9.70;99.20;;;;;;4916878;29;19966;-79
2022/03/31 13:10:17;;;;;;;;;;;9.70;99.40;;;;;;4911296;29;20390;-79
2022/03/31 13:12:44;;;;;;;;;;;9.80;99.60;;;;;;4924627;29;19927;-79
2022/03/31 13:15:12;;;;;;;;;;;9.80;99.50;;;;;;4910426;29;19933;-76
2022/03/31 13:17:40;;;;;;;;;;;9.80;99.40;;;;;;4914764;29;20424;-79
2022/03/31 13:20:07;;;;;;;;;;;9.90;99.60;;;;;;4910193;29;19931;-79
2022/03/31 13:22:35;;;;;;;;;;;9.90;99.50;;;;;;4908674;29;20019;-79
2022/03/31 13:25:06;;;;;;;;;;;9.90;99.60;;;;;;4911362;29;20272;-79
2022/03/31 13:27:33;;;;;;;;;;;10.00;99.40;;;;;;4913851;29;20013;-79
2022/03/31 13:30:00;;;;;;;;;;;10.00;99.30;;;;;;4912839;29;20023;-79
2022/03/31 13:32:28;;;;;;;;;;;10.10;99.20;;;;;;4907337;29;19973;-79
2022/03/31 13:34:55;;;;;;;;;;;10.10;99.20;;;;;;4906127;29;19927;-76
2022/03/31 13:37:22;;;;;;;;;;;10.10;99.10;;;;;;4909771;29;19927;-77
2022/03/31 13:39:50;;;;;;;;;;;10.20;99.60;;;;;;4907757;29;20045;-78
2022/03/31 13:42:19;;;;;;;;;;;10.30;99.80;;;;;;4910883;29;20651;-79
2022/03/31 13:44:46;;;;;;;;;;;10.30;99.80;;;;;;4917645;29;19935;-78
2022/03/31 13:47:13;;;;;;;;;;;10.30;99.70;;;;;;4905539;29;19931;-79
2022/03/31 13:49:41;;;;;;;;;;;10.30;99.50;;;;;;4928072;29;19927;-79
2022/03/31 13:52:08;;;;;;;;;;;10.40;99.40;;;;;;4915512;29;20448;-79
2022/03/31 13:54:37;;;;;;;;;;;10.40;99.50;;;;;;4904140;29;19935;-79
2022/03/31 13:57:04;;;;;;;;;;;10.50;99.50;;;;;;4907352;29;19931;-79
2022/03/31 14:02:19;;;;;;;;;;;10.50;99.30;;;;;;4914202;29;19987;-76
2022/03/31 14:04:46;;;;;;;;;;;10.50;99.10;;;;;;4918079;29;19934;-76
2022/03/31 14:07:13;;;;;;;;;;;10.60;99.20;;;;;;4911076;29;20314;-76
2022/03/31 14:09:40;;;;;;;;;;;10.60;99.30;;;;;;4911064;29;19962;-79
2022/03/31 14:12:09;;;;;;;;;;;10.70;99.20;;;;;;4910886;29;19935;-79
2022/03/31 14:14:37;;;;;;;;;;;10.70;99.20;;;;;;4912065;29;19927;-79
2022/03/31 14:17:04;;;;;;;;;;;10.70;99.00;;;;;;4911553;29;19933;-78
2022/03/31 14:19:34;;;;;;;;;;;10.70;98.90;;;;;;4906357;29;19931;-78
2022/03/31 14:22:03;;;;;;;;;;;10.70;99.10;;;;;;4910203;29;19987;-79
2022/03/31 14:24:30;;;;;;;;;;;10.80;98.80;;;;;;4914494;29;19934;-77
2022/03/31 14:26:59;;;;;;;;;;;10.80;99.10;;;;;;4919070;29;19935;-77
2022/03/31 14:29:26;;;;;;;;;;;10.80;98.80;;;;;;4910498;29;19942;-77
2022/03/31 14:31:54;;;;;;;;;;;10.80;98.70;;;;;;4907119;29;20370;-78
2022/03/31 14:34:21;;;;;;;;;;;10.80;99.10;;;;;;4914681;29;19941;-77
2022/03/31 14:36:49;;;;;;;;;;;10.90;98.70;;;;;;4911293;29;19935;-76
2022/03/31 14:39:17;;;;;;;;;;;10.90;98.80;;;;;;4910169;29;20477;-77
2022/03/31 14:41:44;;;;;;;;;;;10.90;98.50;;;;;;4906425;29;19931;-76
2022/03/31 14:44:13;;;;;;;;;;;10.90;98.50;;;;;;4914161;29;19927;-76
2022/03/31 14:46:40;;;;;;;;;;;10.90;98.40;;;;;;4911915;29;20370;-76
2022/03/31 14:49:11;;;;;;;;;;;10.90;98.50;;;;;;4909696;29;19971;-77